Maersk Magellan — 9V6751 — position and weather

sailwx.info

Track history (hours):
 
Tides and Currents Weather Stations Pressure Air Temp Water Temp Dewpoint Dewpoint Depression Visibility Wind Speed Wind Dir Waves Ship Positions

Maersk Magellan

Last reported at 2015-May-20 05:33 UTC. Time now 2015-May-30 08:34 UTC.
Position N 01°16' E 104°07'.
Warning: this ship's position is 10 days out of date.

Length 183 m; draft 8.5 m.

Type: Ship. MMSI: 566549000.

Date/timePositionNaut miles runAvg speedWind from/ knotsBaromVisibWave heightAir tempDewpointWater temp
2015-May-20 05:33N 01°16' E 104°07'7 7.5
2015-May-20 04:33N 01°15' E 103°60'1311.8
2015-May-20 03:30N 01°10' E 103°48'6811.4
2015-May-19 21:33N 01°38' E 102°47'1010.1
2015-May-19 20:33N 01°43' E 102°38'10 9.9
2015-May-19 19:33N 01°46' E 102°29'1010.0
2015-May-19 18:32N 01°51' E 102°19'2010.2
2015-May-19 16:33N 02°03' E 102°03'  
2015-May-10 10:32N 01°53' E 102°23'1414.7
2015-May-10 09:33N 01°46' E 102°36'1414.2
2015-May-10 08:33N 01°41' E 102°49'  
Track history (hours):
 
Tides and Currents Weather Stations Pressure Air Temp Water Temp Dewpoint Dewpoint Depression Visibility Wind Speed Wind Dir Waves Ship Positions

Maersk Magellan

Last reported at 2015-May-20 05:33 UTC. Time now 2015-May-30 08:34 UTC.
Position N 01°16' E 104°07'.
Warning: this ship's position is 10 days out of date.

Length 183 m; draft 8.5 m.

Type: Ship. MMSI: 566549000.

Date/timePositionNaut miles runAvg speedWind from/ knotsBaromVisibWave heightAir tempDewpointWater temp
2015-May-20 05:33N 01°16' E 104°07'7 7.5
2015-May-20 04:33N 01°15' E 103°60'1311.8
2015-May-20 03:30N 01°10' E 103°48'6811.4
2015-May-19 21:33N 01°38' E 102°47'1010.1
2015-May-19 20:33N 01°43' E 102°38'10 9.9
2015-May-19 19:33N 01°46' E 102°29'1010.0
2015-May-19 18:32N 01°51' E 102°19'2010.2
2015-May-19 16:33N 02°03' E 102°03'  
2015-May-10 10:32N 01°53' E 102°23'1414.7
2015-May-10 09:33N 01°46' E 102°36'1414.2
2015-May-10 08:33N 01°41' E 102°49'  

Dump ship's entire track history